東京理科大学Ⅰ部体育局航空部

このエントリーをはてなブックマークに追加

ようこそ、理科大航空部HPへ! ここでは、航空部に関する情報や、活動などをお知らせしています。


METAR・TAF

TOKYO INTERNATIONAL
Metar
RJTT 220000Z 17013KT 9999 FEW015 31/26 Q1014 NOSIG RMK 1CU015 A2995

00:00 UTC

Wind: 170° 13kt

Visibility: 9999 m

Sky: FEW 1500 ft

Temp: 31 deg C / 87.8 deg F

Dewpoint: 26 deg C / 78.8 deg F

Pressure: 1014 hPa

TAF
TAF RJTT 212305Z 2200/2306 19018KT 9999 FEW030 BECMG 2215/2218 12006KT
NARITA INTERNATIONAL
Metar
RJAA 220000Z 22011KT 9999 FEW020 30/25 Q1014 NOSIG RMK 1CU020 A2996

00:00 UTC

Wind: 220° 11kt

Visibility: 9999 m

Sky: FEW 2000 ft

Temp: 30 deg C / 86 deg F

Dewpoint: 25 deg C / 77 deg F

Pressure: 1014 hPa

TAF
TAF RJAA 212305Z 2200/2306 16012KT 9999 FEW020 SCT040 BECMG 2215/2218 04004KT TEMPO 2215/2221 4000 BR FEW005 BKN008 BECMG 2221/2300 14012KT